sensor_id;sensor_type;location;lat;lon;timestamp;pressure;altitude;pressure_sealevel;temperature;humidity
12178;BME280;6152;48.728;9.256;2023-05-24T00:01:57;97367.13;;;12.38;100.00
12178;BME280;6152;48.728;9.256;2023-05-24T00:04:24;97369.47;;;12.43;100.00
12178;BME280;6152;48.728;9.256;2023-05-24T00:06:51;97363.41;;;12.42;100.00
12178;BME280;6152;48.728;9.256;2023-05-24T00:09:19;97362.28;;;12.46;100.00
12178;BME280;6152;48.728;9.256;2023-05-24T00:11:45;97356.69;;;12.38;100.00
12178;BME280;6152;48.728;9.256;2023-05-24T00:14:13;97355.34;;;12.33;100.00
12178;BME280;6152;48.728;9.256;2023-05-24T00:16:39;97354.94;;;12.39;100.00
12178;BME280;6152;48.728;9.256;2023-05-24T00:19:05;97350.56;;;12.39;100.00
12178;BME280;6152;48.728;9.256;2023-05-24T00:21:31;97355.84;;;12.38;100.00
12178;BME280;6152;48.728;9.256;2023-05-24T00:24:00;97352.44;;;12.37;100.00
12178;BME280;6152;48.728;9.256;2023-05-24T00:26:26;97344.59;;;12.37;100.00
12178;BME280;6152;48.728;9.256;2023-05-24T00:28:52;97351.41;;;12.40;100.00
12178;BME280;6152;48.728;9.256;2023-05-24T00:31:18;97354.00;;;12.40;100.00
12178;BME280;6152;48.728;9.256;2023-05-24T00:33:44;97343.28;;;12.44;100.00
12178;BME280;6152;48.728;9.256;2023-05-24T00:36:10;97345.13;;;12.42;100.00
12178;BME280;6152;48.728;9.256;2023-05-24T00:38:37;97340.31;;;12.36;100.00
12178;BME280;6152;48.728;9.256;2023-05-24T00:41:03;97339.47;;;12.36;100.00
12178;BME280;6152;48.728;9.256;2023-05-24T00:43:29;97343.84;;;12.35;100.00
12178;BME280;6152;48.728;9.256;2023-05-24T00:46:20;97343.22;;;12.32;100.00
12178;BME280;6152;48.728;9.256;2023-05-24T00:48:48;97342.44;;;12.44;100.00
12178;BME280;6152;48.728;9.256;2023-05-24T00:51:15;97339.84;;;12.44;100.00
12178;BME280;6152;48.728;9.256;2023-05-24T00:53:46;97338.44;;;12.38;100.00
12178;BME280;6152;48.728;9.256;2023-05-24T00:56:13;97328.31;;;12.34;100.00
12178;BME280;6152;48.728;9.256;2023-05-24T00:58:40;97334.34;;;12.34;100.00
12178;BME280;6152;48.728;9.256;2023-05-24T01:01:06;97342.16;;;12.34;100.00
12178;BME280;6152;48.728;9.256;2023-05-24T01:03:33;97335.94;;;12.37;100.00
12178;BME280;6152;48.728;9.256;2023-05-24T01:06:05;97330.34;;;12.29;100.00
12178;BME280;6152;48.728;9.256;2023-05-24T01:08:42;97339.56;;;12.34;100.00
12178;BME280;6152;48.728;9.256;2023-05-24T01:19:01;97343.53;;;12.27;100.00
12178;BME280;6152;48.728;9.256;2023-05-24T01:21:53;97344.44;;;12.26;100.00
12178;BME280;6152;48.728;9.256;2023-05-24T01:24:52;97342.75;;;12.25;100.00
12178;BME280;6152;48.728;9.256;2023-05-24T01:27:22;97336.06;;;12.21;100.00
12178;BME280;6152;48.728;9.256;2023-05-24T01:29:50;97338.97;;;12.17;100.00
12178;BME280;6152;48.728;9.256;2023-05-24T01:32:21;97342.78;;;12.11;100.00
12178;BME280;6152;48.728;9.256;2023-05-24T01:34:47;97345.72;;;12.06;100.00
12178;BME280;6152;48.728;9.256;2023-05-24T01:37:13;97345.72;;;12.06;100.00
12178;BME280;6152;48.728;9.256;2023-05-24T01:39:40;97343.75;;;12.10;100.00
12178;BME280;6152;48.728;9.256;2023-05-24T01:42:21;97344.75;;;12.07;100.00
12178;BME280;6152;48.728;9.256;2023-05-24T01:47:51;97341.44;;;12.05;100.00
12178;BME280;6152;48.728;9.256;2023-05-24T01:50:35;97340.78;;;12.02;100.00
12178;BME280;6152;48.728;9.256;2023-05-24T01:53:07;97340.78;;;12.02;100.00
12178;BME280;6152;48.728;9.256;2023-05-24T01:55:36;97346.75;;;11.90;100.00
12178;BME280;6152;48.728;9.256;2023-05-24T01:58:04;97350.50;;;11.86;100.00
12178;BME280;6152;48.728;9.256;2023-05-24T02:00:32;97346.22;;;11.85;100.00
12178;BME280;6152;48.728;9.256;2023-05-24T02:03:00;97349.47;;;11.88;100.00
12178;BME280;6152;48.728;9.256;2023-05-24T02:05:31;97338.94;;;11.76;100.00
12178;BME280;6152;48.728;9.256;2023-05-24T02:07:58;97343.34;;;11.75;100.00
12178;BME280;6152;48.728;9.256;2023-05-24T02:10:24;97343.59;;;11.71;100.00
12178;BME280;6152;48.728;9.256;2023-05-24T02:12:50;97348.88;;;11.55;100.00
12178;BME280;6152;48.728;9.256;2023-05-24T02:15:16;97348.97;;;11.53;100.00
12178;BME280;6152;48.728;9.256;2023-05-24T02:17:42;97351.59;;;11.53;100.00
12178;BME280;6152;48.728;9.256;2023-05-24T02:20:09;97350.47;;;11.57;100.00
12178;BME280;6152;48.728;9.256;2023-05-24T02:22:35;97348.97;;;11.53;100.00
12178;BME280;6152;48.728;9.256;2023-05-24T02:25:02;97354.47;;;11.63;100.00
12178;BME280;6152;48.728;9.256;2023-05-24T02:27:28;97347.28;;;11.52;100.00
12178;BME280;6152;48.728;9.256;2023-05-24T02:29:54;97343.97;;;11.50;100.00
12178;BME280;6152;48.728;9.256;2023-05-24T02:32:20;97342.09;;;11.52;100.00
12178;BME280;6152;48.728;9.256;2023-05-24T02:34:46;97342.28;;;11.49;100.00
12178;BME280;6152;48.728;9.256;2023-05-24T02:37:12;97349.63;;;11.43;100.00
12178;BME280;6152;48.728;9.256;2023-05-24T02:39:39;97346.56;;;11.36;100.00
12178;BME280;6152;48.728;9.256;2023-05-24T02:42:07;97345.78;;;11.34;100.00
12178;BME280;6152;48.728;9.256;2023-05-24T02:44:34;97345.91;;;11.33;100.00
12178;BME280;6152;48.728;9.256;2023-05-24T02:47:00;97338.53;;;11.25;100.00
12178;BME280;6152;48.728;9.256;2023-05-24T02:49:26;97347.13;;;11.27;100.00
12178;BME280;6152;48.728;9.256;2023-05-24T02:51:52;97352.47;;;11.24;100.00
12178;BME280;6152;48.728;9.256;2023-05-24T02:54:18;97347.81;;;11.15;100.00
12178;BME280;6152;48.728;9.256;2023-05-24T02:56:44;97354.72;;;11.16;100.00
12178;BME280;6152;48.728;9.256;2023-05-24T02:59:10;97351.34;;;11.14;100.00
12178;BME280;6152;48.728;9.256;2023-05-24T03:01:37;97354.72;;;11.16;100.00
12178;BME280;6152;48.728;9.256;2023-05-24T03:04:03;97352.19;;;11.14;100.00
12178;BME280;6152;48.728;9.256;2023-05-24T03:06:29;97344.66;;;11.10;100.00
12178;BME280;6152;48.728;9.256;2023-05-24T03:08:55;97352.00;;;11.18;100.00
12178;BME280;6152;48.728;9.256;2023-05-24T03:11:23;97351.34;;;11.14;100.00
12178;BME280;6152;48.728;9.256;2023-05-24T03:13:49;97345.66;;;11.07;100.00
12178;BME280;6152;48.728;9.256;2023-05-24T03:16:15;97344.53;;;10.97;100.00
12178;BME280;6152;48.728;9.256;2023-05-24T03:18:41;97346.41;;;10.95;100.00
12178;BME280;6152;48.728;9.256;2023-05-24T03:21:07;97346.28;;;10.97;100.00
12178;BME280;6152;48.728;9.256;2023-05-24T03:23:33;97346.59;;;10.92;100.00
12178;BME280;6152;48.728;9.256;2023-05-24T03:26:00;97348.34;;;10.92;100.00
12178;BME280;6152;48.728;9.256;2023-05-24T03:28:26;97358.94;;;10.89;100.00
12178;BME280;6152;48.728;9.256;2023-05-24T03:30:52;97347.41;;;10.93;100.00
12178;BME280;6152;48.728;9.256;2023-05-24T03:33:18;97348.53;;;10.89;100.00
12178;BME280;6152;48.728;9.256;2023-05-24T03:35:45;97348.19;;;10.79;100.00
12178;BME280;6152;48.728;9.256;2023-05-24T03:38:11;97343.94;;;10.78;100.00
12178;BME280;6152;48.728;9.256;2023-05-24T03:40:37;97343.81;;;10.80;100.00
12178;BME280;6152;48.728;9.256;2023-05-24T03:43:03;97344.13;;;10.75;100.00
12178;BME280;6152;48.728;9.256;2023-05-24T03:45:29;97346.97;;;10.71;100.00
12178;BME280;6152;48.728;9.256;2023-05-24T03:47:55;97356.53;;;10.70;100.00
12178;BME280;6152;48.728;9.256;2023-05-24T03:50:21;97352.19;;;10.71;100.00
12178;BME280;6152;48.728;9.256;2023-05-24T03:52:47;97356.47;;;10.72;100.00
12178;BME280;6152;48.728;9.256;2023-05-24T03:55:14;97350.50;;;10.70;100.00
12178;BME280;6152;48.728;9.256;2023-05-24T03:57:40;97358.88;;;10.75;100.00
12178;BME280;6152;48.728;9.256;2023-05-24T04:00:08;97352.25;;;10.69;100.00
12178;BME280;6152;48.728;9.256;2023-05-24T04:02:35;97349.56;;;10.71;100.00
12178;BME280;6152;48.728;9.256;2023-05-24T04:05:06;97347.81;;;10.71;100.00
12178;BME280;6152;48.728;9.256;2023-05-24T04:07:35;97350.31;;;10.73;100.00
12178;BME280;6152;48.728;9.256;2023-05-24T04:10:03;97358.88;;;10.75;100.00
12178;BME280;6152;48.728;9.256;2023-05-24T04:12:30;97349.97;;;10.79;100.00
12178;BME280;6152;48.728;9.256;2023-05-24T04:14:57;97342.31;;;10.76;100.00
12178;BME280;6152;48.728;9.256;2023-05-24T04:17:23;97348.47;;;10.75;100.00
12178;BME280;6152;48.728;9.256;2023-05-24T04:19:50;97343.81;;;10.80;100.00
12178;BME280;6152;48.728;9.256;2023-05-24T04:22:17;97343.66;;;10.83;100.00
12178;BME280;6152;48.728;9.256;2023-05-24T04:24:44;97350.66;;;10.82;100.00
12178;BME280;6152;48.728;9.256;2023-05-24T04:27:10;97342.53;;;10.87;100.00
12178;BME280;6152;48.728;9.256;2023-05-24T04:29:38;97337.69;;;10.81;100.00
12178;BME280;6152;48.728;9.256;2023-05-24T04:32:05;97347.19;;;10.82;100.00
12178;BME280;6152;48.728;9.256;2023-05-24T04:34:31;97350.03;;;10.93;100.00
12178;BME280;6152;48.728;9.256;2023-05-24T04:37:00;97343.31;;;10.89;100.00
12178;BME280;6152;48.728;9.256;2023-05-24T04:39:28;97346.66;;;10.91;100.00
12178;BME280;6152;48.728;9.256;2023-05-24T04:41:55;97349.44;;;10.88;100.00
12178;BME280;6152;48.728;9.256;2023-05-24T04:44:23;97354.66;;;10.88;100.00
12178;BME280;6152;48.728;9.256;2023-05-24T04:46:49;97353.53;;;10.92;100.00
12178;BME280;6152;48.728;9.256;2023-05-24T04:49:15;97358.56;;;10.95;100.00
12178;BME280;6152;48.728;9.256;2023-05-24T04:51:42;97360.25;;;10.96;100.00
12178;BME280;6152;48.728;9.256;2023-05-24T04:54:09;97367.13;;;10.97;100.00
12178;BME280;6152;48.728;9.256;2023-05-24T04:56:35;97359.41;;;10.95;100.00
12178;BME280;6152;48.728;9.256;2023-05-24T04:59:03;97370.09;;;10.91;100.00
12178;BME280;6152;48.728;9.256;2023-05-24T05:01:30;97373.47;;;10.93;100.00
12178;BME280;6152;48.728;9.256;2023-05-24T05:03:57;97376.00;;;10.79;100.00
12178;BME280;6152;48.728;9.256;2023-05-24T05:06:23;97373.97;;;10.84;100.00
12178;BME280;6152;48.728;9.256;2023-05-24T05:08:50;97382.69;;;10.83;100.00
12178;BME280;6152;48.728;9.256;2023-05-24T05:11:16;97380.88;;;10.85;100.00
12178;BME280;6152;48.728;9.256;2023-05-24T05:13:44;97379.94;;;10.86;100.00
12178;BME280;6152;48.728;9.256;2023-05-24T05:16:10;97377.81;;;10.92;100.00
12178;BME280;6152;48.728;9.256;2023-05-24T05:18:36;97381.81;;;10.98;100.00
12178;BME280;6152;48.728;9.256;2023-05-24T05:21:03;97374.00;;;10.98;100.00
12178;BME280;6152;48.728;9.256;2023-05-24T05:23:29;97378.31;;;10.99;100.00
12178;BME280;6152;48.728;9.256;2023-05-24T05:25:55;97385.31;;;10.83;100.00
12178;BME280;6152;48.728;9.256;2023-05-24T05:28:22;97379.09;;;10.85;100.00
12178;BME280;6152;48.728;9.256;2023-05-24T05:30:48;97376.97;;;10.92;100.00
12178;BME280;6152;48.728;9.256;2023-05-24T05:33:14;97378.53;;;11.10;100.00
12178;BME280;6152;48.728;9.256;2023-05-24T05:35:40;97374.97;;;11.11;100.00
12178;BME280;6152;48.728;9.256;2023-05-24T05:38:06;97384.22;;;11.17;100.00
12178;BME280;6152;48.728;9.256;2023-05-24T05:40:32;97381.50;;;11.18;100.00
12178;BME280;6152;48.728;9.256;2023-05-24T05:42:58;97383.94;;;11.21;100.00
12178;BME280;6152;48.728;9.256;2023-05-24T05:45:25;97381.72;;;11.29;100.00
12178;BME280;6152;48.728;9.256;2023-05-24T05:47:51;97380.69;;;11.32;100.00
12178;BME280;6152;48.728;9.256;2023-05-24T05:50:17;97379.66;;;11.34;100.00
12178;BME280;6152;48.728;9.256;2023-05-24T05:52:43;97376.91;;;11.51;100.00
12178;BME280;6152;48.728;9.256;2023-05-24T05:55:09;97377.38;;;11.58;100.00
12178;BME280;6152;48.728;9.256;2023-05-24T05:57:37;97379.34;;;11.54;100.00
12178;BME280;6152;48.728;9.256;2023-05-24T06:00:03;97385.94;;;11.60;100.00
12178;BME280;6152;48.728;9.256;2023-05-24T06:02:29;97391.53;;;11.54;100.00
12178;BME280;6152;48.728;9.256;2023-05-24T06:04:55;97379.69;;;11.62;100.00
12178;BME280;6152;48.728;9.256;2023-05-24T06:07:21;97379.00;;;11.75;100.00
12178;BME280;6152;48.728;9.256;2023-05-24T06:09:48;97381.22;;;11.81;100.00
12178;BME280;6152;48.728;9.256;2023-05-24T06:12:14;97376.94;;;11.80;100.00
12178;BME280;6152;48.728;9.256;2023-05-24T06:14:40;97375.44;;;11.90;100.00
12178;BME280;6152;48.728;9.256;2023-05-24T06:17:06;97376.25;;;12.04;100.00
12178;BME280;6152;48.728;9.256;2023-05-24T06:19:32;97376.91;;;12.08;100.00
12178;BME280;6152;48.728;9.256;2023-05-24T06:21:59;97374.03;;;12.12;100.00
12178;BME280;6152;48.728;9.256;2023-05-24T06:24:25;97370.84;;;12.07;100.00
12178;BME280;6152;48.728;9.256;2023-05-24T06:26:53;97376.72;;;12.11;100.00
12178;BME280;6152;48.728;9.256;2023-05-24T06:29:19;97374.72;;;12.29;100.00
12178;BME280;6152;48.728;9.256;2023-05-24T06:31:50;97380.88;;;12.28;100.00
12178;BME280;6152;48.728;9.256;2023-05-24T06:34:17;97373.13;;;12.40;100.00
12178;BME280;6152;48.728;9.256;2023-05-24T06:36:46;97380.59;;;12.59;100.00
12178;BME280;6152;48.728;9.256;2023-05-24T06:39:14;97383.66;;;12.65;100.00
12178;BME280;6152;48.728;9.256;2023-05-24T06:41:42;97381.38;;;12.74;100.00
12178;BME280;6152;48.728;9.256;2023-05-24T06:44:09;97385.41;;;12.92;100.00
12178;BME280;6152;48.728;9.256;2023-05-24T06:46:35;97383.53;;;12.94;100.00
12178;BME280;6152;48.728;9.256;2023-05-24T06:49:02;97388.03;;;12.92;100.00
12178;BME280;6152;48.728;9.256;2023-05-24T06:51:29;97386.63;;;12.86;100.00
12178;BME280;6152;48.728;9.256;2023-05-24T06:53:55;97400.34;;;12.90;100.00
12178;BME280;6152;48.728;9.256;2023-05-24T06:56:21;97395.22;;;12.88;100.00
12178;BME280;6152;48.728;9.256;2023-05-24T06:58:48;97399.63;;;13.00;100.00
12178;BME280;6152;48.728;9.256;2023-05-24T07:01:14;97399.97;;;13.08;100.00
12178;BME280;6152;48.728;9.256;2023-05-24T07:03:41;97397.38;;;13.08;100.00
12178;BME280;6152;48.728;9.256;2023-05-24T07:06:07;97395.81;;;13.06;100.00
12178;BME280;6152;48.728;9.256;2023-05-24T07:08:35;97395.94;;;13.17;100.00
12178;BME280;6152;48.728;9.256;2023-05-24T07:11:01;97400.56;;;13.26;100.00
12178;BME280;6152;48.728;9.256;2023-05-24T07:13:28;97411.38;;;13.07;100.00
12178;BME280;6152;48.728;9.256;2023-05-24T07:15:54;97416.81;;;12.78;100.00
12178;BME280;6152;48.728;9.256;2023-05-24T07:18:20;97423.16;;;12.74;100.00
12178;BME280;6152;48.728;9.256;2023-05-24T07:20:46;97415.19;;;12.62;100.00
12178;BME280;6152;48.728;9.256;2023-05-24T07:23:12;97423.78;;;12.64;100.00
12178;BME280;6152;48.728;9.256;2023-05-24T07:25:38;97427.41;;;12.62;100.00
12178;BME280;6152;48.728;9.256;2023-05-24T07:28:04;97423.38;;;12.71;100.00
12178;BME280;6152;48.728;9.256;2023-05-24T07:30:30;97432.94;;;12.57;100.00
12178;BME280;6152;48.728;9.256;2023-05-24T07:32:56;97431.25;;;12.56;100.00
12178;BME280;6152;48.728;9.256;2023-05-24T07:35:23;97435.56;;;12.43;100.00
12178;BME280;6152;48.728;9.256;2023-05-24T07:37:49;97440.88;;;12.28;100.00
12178;BME280;6152;48.728;9.256;2023-05-24T07:40:15;97443.41;;;12.29;100.00
12178;BME280;6152;48.728;9.256;2023-05-24T07:42:42;97442.84;;;12.24;100.00
12178;BME280;6152;48.728;9.256;2023-05-24T07:45:08;97445.28;;;12.27;100.00
12178;BME280;6152;48.728;9.256;2023-05-24T07:47:35;97444.16;;;12.31;100.00
12178;BME280;6152;48.728;9.256;2023-05-24T07:50:02;97440.25;;;12.24;100.00
12178;BME280;6152;48.728;9.256;2023-05-24T07:52:28;97441.66;;;12.15;100.00
12178;BME280;6152;48.728;9.256;2023-05-24T07:54:55;97450.22;;;12.32;100.00
12178;BME280;6152;48.728;9.256;2023-05-24T07:57:21;97448.25;;;12.21;100.00
12178;BME280;6152;48.728;9.256;2023-05-24T07:59:47;97444.53;;;12.39;100.00
12178;BME280;6152;48.728;9.256;2023-05-24T08:02:14;97448.06;;;12.38;100.00
12178;BME280;6152;48.728;9.256;2023-05-24T08:04:41;97449.34;;;12.45;100.00
12178;BME280;6152;48.728;9.256;2023-05-24T08:07:08;97449.03;;;12.64;100.00
12178;BME280;6152;48.728;9.256;2023-05-24T08:09:34;97455.25;;;12.76;100.00
12178;BME280;6152;48.728;9.256;2023-05-24T08:12:04;97449.97;;;12.90;100.00
12178;BME280;6152;48.728;9.256;2023-05-24T08:14:30;97456.00;;;12.78;100.00
12178;BME280;6152;48.728;9.256;2023-05-24T08:16:57;97458.16;;;12.98;100.00
12178;BME280;6152;48.728;9.256;2023-05-24T08:19:25;97461.41;;;13.15;100.00
12178;BME280;6152;48.728;9.256;2023-05-24T08:21:55;97466.22;;;13.34;100.00
12178;BME280;6152;48.728;9.256;2023-05-24T08:24:29;97465.09;;;13.38;100.00
12178;BME280;6152;48.728;9.256;2023-05-24T08:26:56;97460.22;;;13.46;100.00
12178;BME280;6152;48.728;9.256;2023-05-24T08:29:22;97474.13;;;13.59;100.00
12178;BME280;6152;48.728;9.256;2023-05-24T08:31:49;97474.06;;;13.74;100.00
12178;BME280;6152;48.728;9.256;2023-05-24T08:34:15;97473.63;;;13.54;100.00
12178;BME280;6152;48.728;9.256;2023-05-24T08:36:41;97478.53;;;13.59;100.00
12178;BME280;6152;48.728;9.256;2023-05-24T08:39:08;97477.59;;;13.60;100.00
12178;BME280;6152;48.728;9.256;2023-05-24T08:41:35;97487.06;;;13.48;100.00
12178;BME280;6152;48.728;9.256;2023-05-24T08:44:06;97480.75;;;13.65;100.00
12178;BME280;6152;48.728;9.256;2023-05-24T08:46:36;97478.22;;;13.76;100.00
12178;BME280;6152;48.728;9.256;2023-05-24T08:49:03;97484.72;;;13.71;100.00
12178;BME280;6152;48.728;9.256;2023-05-24T08:51:30;97486.16;;;13.49;100.00
12178;BME280;6152;48.728;9.256;2023-05-24T08:53:59;97478.94;;;13.65;100.00
12178;BME280;6152;48.728;9.256;2023-05-24T08:56:26;97475.63;;;13.89;100.00
12178;BME280;6152;48.728;9.256;2023-05-24T08:58:54;97484.53;;;14.11;100.00
12178;BME280;6152;48.728;9.256;2023-05-24T09:01:21;97480.34;;;14.34;100.00
12178;BME280;6152;48.728;9.256;2023-05-24T09:03:50;97479.72;;;14.43;100.00
12178;BME280;6152;48.728;9.256;2023-05-24T09:06:17;97483.66;;;14.61;97.51
12178;BME280;6152;48.728;9.256;2023-05-24T09:08:44;97476.94;;;14.94;91.07
12178;BME280;6152;48.728;9.256;2023-05-24T09:11:10;97484.81;;;14.94;91.66
12178;BME280;6152;48.728;9.256;2023-05-24T09:13:37;97479.06;;;14.89;89.61
12178;BME280;6152;48.728;9.256;2023-05-24T09:16:04;97479.91;;;14.89;92.91
12178;BME280;6152;48.728;9.256;2023-05-24T09:18:30;97480.00;;;14.88;94.16
12178;BME280;6152;48.728;9.256;2023-05-24T09:20:56;97476.69;;;14.86;94.58
12178;BME280;6152;48.728;9.256;2023-05-24T09:23:24;97483.19;;;14.80;93.61
12178;BME280;6152;48.728;9.256;2023-05-24T09:25:51;97478.69;;;14.82;93.19
12178;BME280;6152;48.728;9.256;2023-05-24T09:28:18;97470.84;;;14.70;95.91
12178;BME280;6152;48.728;9.256;2023-05-24T09:30:56;97463.50;;;14.75;94.93
12178;BME280;6152;48.728;9.256;2023-05-24T09:33:22;97465.78;;;14.79;95.05
12178;BME280;6152;48.728;9.256;2023-05-24T09:35:48;97466.19;;;14.86;92.30
12178;BME280;6152;48.728;9.256;2023-05-24T09:38:18;97469.69;;;14.74;94.06
12178;BME280;6152;48.728;9.256;2023-05-24T09:40:45;97470.91;;;14.81;91.44
12178;BME280;6152;48.728;9.256;2023-05-24T09:43:11;97475.00;;;14.72;93.50
12178;BME280;6152;48.728;9.256;2023-05-24T09:45:41;97473.22;;;14.73;95.04
12178;BME280;6152;48.728;9.256;2023-05-24T09:48:12;97478.31;;;14.87;94.58
12178;BME280;6152;48.728;9.256;2023-05-24T09:50:39;97478.47;;;14.36;95.09
12178;BME280;6152;48.728;9.256;2023-05-24T09:53:05;97486.00;;;14.03;97.06
12178;BME280;6152;48.728;9.256;2023-05-24T09:55:35;97484.53;;;14.11;96.01
12178;BME280;6152;48.728;9.256;2023-05-24T09:58:07;97479.06;;;14.14;95.80
12178;BME280;6152;48.728;9.256;2023-05-24T10:00:38;97483.50;;;13.89;95.09
12178;BME280;6152;48.728;9.256;2023-05-24T10:03:07;97488.09;;;13.98;96.93
12178;BME280;6152;48.728;9.256;2023-05-24T10:05:34;97487.28;;;14.10;96.73
12178;BME280;6152;48.728;9.256;2023-05-24T10:08:02;97489.16;;;13.95;98.42
12178;BME280;6152;48.728;9.256;2023-05-24T10:10:31;97479.19;;;14.13;98.85
12178;BME280;6152;48.728;9.256;2023-05-24T10:12:58;97473.84;;;14.27;100.00
12178;BME280;6152;48.728;9.256;2023-05-24T10:15:26;97478.34;;;13.75;100.00
12178;BME280;6152;48.728;9.256;2023-05-24T10:17:57;97476.03;;;13.83;100.00
12178;BME280;6152;48.728;9.256;2023-05-24T10:20:24;97479.28;;;13.74;100.00
12178;BME280;6152;48.728;9.256;2023-05-24T10:22:54;97469.97;;;13.70;100.00
12178;BME280;6152;48.728;9.256;2023-05-24T10:25:23;97475.69;;;13.49;100.00
12178;BME280;6152;48.728;9.256;2023-05-24T10:27:54;97477.78;;;13.44;100.00
12178;BME280;6152;48.728;9.256;2023-05-24T10:30:36;97479.06;;;13.12;100.00
12178;BME280;6152;48.728;9.256;2023-05-24T10:33:08;97480.47;;;13.30;100.00
12178;BME280;6152;48.728;9.256;2023-05-24T10:35:38;97487.91;;;13.36;100.00
12178;BME280;6152;48.728;9.256;2023-05-24T10:38:06;97482.81;;;13.21;100.00
12178;BME280;6152;48.728;9.256;2023-05-24T10:40:33;97486.47;;;13.18;100.00
12178;BME280;6152;48.728;9.256;2023-05-24T10:43:03;97485.63;;;13.18;100.00
12178;BME280;6152;48.728;9.256;2023-05-24T10:45:33;97481.91;;;13.07;100.00
12178;BME280;6152;48.728;9.256;2023-05-24T10:48:30;97480.94;;;12.96;100.00
12178;BME280;6152;48.728;9.256;2023-05-24T10:51:00;97467.13;;;12.94;100.00
12178;BME280;6152;48.728;9.256;2023-05-24T10:53:47;97475.84;;;13.07;100.00
12178;BME280;6152;48.728;9.256;2023-05-24T10:56:14;97471.22;;;13.12;100.00
12178;BME280;6152;48.728;9.256;2023-05-24T10:58:58;97472.34;;;12.94;100.00
12178;BME280;6152;48.728;9.256;2023-05-24T11:01:29;97470.63;;;13.07;100.00
12178;BME280;6152;48.728;9.256;2023-05-24T11:04:10;97472.28;;;13.22;100.00
12178;BME280;6152;48.728;9.256;2023-05-24T11:06:47;97470.66;;;13.34;100.00
12178;BME280;6152;48.728;9.256;2023-05-24T11:09:15;97470.88;;;13.43;100.00
12178;BME280;6152;48.728;9.256;2023-05-24T11:11:46;97477.59;;;13.47;100.00
12178;BME280;6152;48.728;9.256;2023-05-24T11:14:17;97471.78;;;13.30;100.00
12178;BME280;6152;48.728;9.256;2023-05-24T11:16:45;97469.91;;;13.05;100.00
12178;BME280;6152;48.728;9.256;2023-05-24T11:19:20;97474.75;;;13.11;100.00
12178;BME280;6152;48.728;9.256;2023-05-24T11:21:49;97470.38;;;13.11;100.00
12178;BME280;6152;48.728;9.256;2023-05-24T11:24:17;97479.13;;;13.10;100.00
12178;BME280;6152;48.728;9.256;2023-05-24T11:26:44;97468.84;;;13.34;100.00
12178;BME280;6152;48.728;9.256;2023-05-24T11:29:12;97472.31;;;13.35;100.00
12178;BME280;6152;48.728;9.256;2023-05-24T11:31:57;97466.16;;;13.48;100.00
12178;BME280;6152;48.728;9.256;2023-05-24T11:34:26;97461.19;;;13.71;100.00
12178;BME280;6152;48.728;9.256;2023-05-24T11:36:52;97463.81;;;13.96;100.00
12178;BME280;6152;48.728;9.256;2023-05-24T11:39:20;97459.41;;;14.09;95.88
12178;BME280;6152;48.728;9.256;2023-05-24T11:41:47;97456.69;;;13.98;96.29
12178;BME280;6152;48.728;9.256;2023-05-24T11:44:16;97450.09;;;14.05;92.85
12178;BME280;6152;48.728;9.256;2023-05-24T11:46:46;97452.47;;;14.21;91.89
12178;BME280;6152;48.728;9.256;2023-05-24T11:49:14;97455.34;;;14.66;94.50
12178;BME280;6152;48.728;9.256;2023-05-24T11:51:40;97453.94;;;15.10;87.11
12178;BME280;6152;48.728;9.256;2023-05-24T11:54:06;97449.50;;;15.45;82.44
12178;BME280;6152;48.728;9.256;2023-05-24T11:56:32;97448.44;;;15.83;73.54
12178;BME280;6152;48.728;9.256;2023-05-24T12:01:38;97440.13;;;16.66;63.57
12178;BME280;6152;48.728;9.256;2023-05-24T12:04:06;97448.09;;;17.19;59.89
12178;BME280;6152;48.728;9.256;2023-05-24T12:06:39;97440.34;;;17.70;57.25
12178;BME280;6152;48.728;9.256;2023-05-24T12:09:07;97439.91;;;18.16;55.57
12178;BME280;6152;48.728;9.256;2023-05-24T12:11:45;97438.97;;;19.45;51.09
12178;BME280;6152;48.728;9.256;2023-05-24T12:14:13;97428.81;;;19.69;48.30
12178;BME280;6152;48.728;9.256;2023-05-24T12:16:42;97442.44;;;19.26;48.65
12178;BME280;6152;48.728;9.256;2023-05-24T12:19:19;97436.72;;;19.02;49.13
12178;BME280;6152;48.728;9.256;2023-05-24T12:21:47;97432.84;;;19.06;45.38
12178;BME280;6152;48.728;9.256;2023-05-24T12:24:16;97428.41;;;19.26;46.41
12178;BME280;6152;48.728;9.256;2023-05-24T12:26:45;97427.41;;;19.17;47.56
12178;BME280;6152;48.728;9.256;2023-05-24T12:29:12;97421.31;;;19.26;46.11
12178;BME280;6152;48.728;9.256;2023-05-24T12:31:39;97416.00;;;18.69;47.36
12178;BME280;6152;48.728;9.256;2023-05-24T12:34:11;97426.38;;;18.00;44.53
12178;BME280;6152;48.728;9.256;2023-05-24T12:36:38;97432.50;;;17.59;44.65
12178;BME280;6152;48.728;9.256;2023-05-24T12:39:21;97422.28;;;17.86;45.06
12178;BME280;6152;48.728;9.256;2023-05-24T12:41:54;97421.31;;;18.17;47.08
12178;BME280;6152;48.728;9.256;2023-05-24T12:44:29;97422.75;;;18.31;44.71
12178;BME280;6152;48.728;9.256;2023-05-24T12:46:56;97427.25;;;18.40;43.69
12178;BME280;6152;48.728;9.256;2023-05-24T12:49:26;97424.50;;;18.11;45.10
12178;BME280;6152;48.728;9.256;2023-05-24T12:51:53;97419.88;;;18.04;46.45
12178;BME280;6152;48.728;9.256;2023-05-24T12:54:23;97397.88;;;17.84;45.21
12178;BME280;6152;48.728;9.256;2023-05-24T12:56:50;97414.00;;;17.49;49.19
12178;BME280;6152;48.728;9.256;2023-05-24T12:59:16;97410.00;;;17.34;44.77
12178;BME280;6152;48.728;9.256;2023-05-24T13:01:43;97415.16;;;17.04;44.02
12178;BME280;6152;48.728;9.256;2023-05-24T13:04:11;97422.78;;;16.53;46.70
12178;BME280;6152;48.728;9.256;2023-05-24T13:06:38;97419.31;;;16.41;49.23
12178;BME280;6152;48.728;9.256;2023-05-24T13:09:04;97411.72;;;16.05;45.91
12178;BME280;6152;48.728;9.256;2023-05-24T13:11:31;97409.94;;;16.05;47.46
12178;BME280;6152;48.728;9.256;2023-05-24T13:13:57;97408.59;;;15.78;46.30
12178;BME280;6152;48.728;9.256;2023-05-24T13:16:24;97399.78;;;16.01;44.86
12178;BME280;6152;48.728;9.256;2023-05-24T13:18:51;97407.41;;;15.93;46.22
12178;BME280;6152;48.728;9.256;2023-05-24T13:21:18;97397.03;;;15.91;46.87